sensor_id;sensor_type;location;lat;lon;timestamp;P1;durP1;ratioP1;P2;durP2;ratioP2
4186;SDS011;2107;52.306;10.484;2023-01-16T00:01:14;0.50;;;0.50;;
4186;SDS011;2107;52.306;10.484;2023-01-16T00:03:42;0.50;;;0.50;;
4186;SDS011;2107;52.306;10.484;2023-01-16T00:06:09;0.50;;;0.50;;
4186;SDS011;2107;52.306;10.484;2023-01-16T00:08:36;0.50;;;0.50;;
4186;SDS011;2107;52.306;10.484;2023-01-16T00:11:04;0.50;;;0.50;;
4186;SDS011;2107;52.306;10.484;2023-01-16T00:13:31;0.60;;;0.60;;
4186;SDS011;2107;52.306;10.484;2023-01-16T00:15:58;0.50;;;0.50;;
4186;SDS011;2107;52.306;10.484;2023-01-16T00:18:25;0.50;;;0.50;;
4186;SDS011;2107;52.306;10.484;2023-01-16T00:20:52;0.50;;;0.50;;
4186;SDS011;2107;52.306;10.484;2023-01-16T00:23:19;0.50;;;0.50;;
4186;SDS011;2107;52.306;10.484;2023-01-16T00:25:45;0.60;;;0.60;;
4186;SDS011;2107;52.306;10.484;2023-01-16T00:28:14;0.70;;;0.70;;
4186;SDS011;2107;52.306;10.484;2023-01-16T00:30:41;0.50;;;0.50;;
4186;SDS011;2107;52.306;10.484;2023-01-16T00:33:10;0.50;;;0.50;;
4186;SDS011;2107;52.306;10.484;2023-01-16T00:35:37;0.60;;;0.60;;
4186;SDS011;2107;52.306;10.484;2023-01-16T00:38:03;0.50;;;0.50;;
4186;SDS011;2107;52.306;10.484;2023-01-16T00:40:30;0.60;;;0.60;;
4186;SDS011;2107;52.306;10.484;2023-01-16T00:42:57;0.50;;;0.50;;
4186;SDS011;2107;52.306;10.484;2023-01-16T00:45:26;0.60;;;0.60;;
4186;SDS011;2107;52.306;10.484;2023-01-16T00:47:52;0.60;;;0.60;;
4186;SDS011;2107;52.306;10.484;2023-01-16T00:50:19;0.50;;;0.50;;
4186;SDS011;2107;52.306;10.484;2023-01-16T00:52:46;0.50;;;0.50;;
4186;SDS011;2107;52.306;10.484;2023-01-16T00:55:13;0.50;;;0.50;;
4186;SDS011;2107;52.306;10.484;2023-01-16T00:57:40;0.60;;;0.60;;
4186;SDS011;2107;52.306;10.484;2023-01-16T01:00:08;0.60;;;0.60;;
4186;SDS011;2107;52.306;10.484;2023-01-16T01:02:37;0.50;;;0.50;;
4186;SDS011;2107;52.306;10.484;2023-01-16T01:05:04;0.50;;;0.50;;
4186;SDS011;2107;52.306;10.484;2023-01-16T01:07:32;0.53;;;0.53;;
4186;SDS011;2107;52.306;10.484;2023-01-16T01:09:59;0.60;;;0.60;;
4186;SDS011;2107;52.306;10.484;2023-01-16T01:12:25;0.50;;;0.50;;
4186;SDS011;2107;52.306;10.484;2023-01-16T01:14:52;0.50;;;0.50;;
4186;SDS011;2107;52.306;10.484;2023-01-16T01:17:19;0.40;;;0.40;;
4186;SDS011;2107;52.306;10.484;2023-01-16T01:19:47;0.60;;;0.60;;
4186;SDS011;2107;52.306;10.484;2023-01-16T01:22:14;0.50;;;0.50;;
4186;SDS011;2107;52.306;10.484;2023-01-16T01:24:42;0.40;;;0.40;;
4186;SDS011;2107;52.306;10.484;2023-01-16T01:27:10;0.50;;;0.50;;
4186;SDS011;2107;52.306;10.484;2023-01-16T01:29:37;0.60;;;0.60;;
4186;SDS011;2107;52.306;10.484;2023-01-16T01:32:04;0.50;;;0.50;;
4186;SDS011;2107;52.306;10.484;2023-01-16T01:34:31;0.50;;;0.50;;
4186;SDS011;2107;52.306;10.484;2023-01-16T01:37:00;0.50;;;0.50;;
4186;SDS011;2107;52.306;10.484;2023-01-16T01:39:27;0.60;;;0.60;;
4186;SDS011;2107;52.306;10.484;2023-01-16T01:41:54;0.60;;;0.60;;
4186;SDS011;2107;52.306;10.484;2023-01-16T01:44:49;0.60;;;0.60;;
4186;SDS011;2107;52.306;10.484;2023-01-16T01:47:19;0.50;;;0.50;;
4186;SDS011;2107;52.306;10.484;2023-01-16T01:49:49;0.50;;;0.50;;
4186;SDS011;2107;52.306;10.484;2023-01-16T01:52:19;0.57;;;0.57;;
4186;SDS011;2107;52.306;10.484;2023-01-16T01:54:48;0.50;;;0.50;;
4186;SDS011;2107;52.306;10.484;2023-01-16T01:57:21;0.50;;;0.50;;
4186;SDS011;2107;52.306;10.484;2023-01-16T01:59:54;0.60;;;0.60;;
4186;SDS011;2107;52.306;10.484;2023-01-16T02:02:25;0.60;;;0.60;;
4186;SDS011;2107;52.306;10.484;2023-01-16T02:04:54;0.50;;;0.50;;
4186;SDS011;2107;52.306;10.484;2023-01-16T02:07:24;0.50;;;0.50;;
4186;SDS011;2107;52.306;10.484;2023-01-16T02:09:55;0.70;;;0.70;;
4186;SDS011;2107;52.306;10.484;2023-01-16T02:12:28;0.60;;;0.60;;
4186;SDS011;2107;52.306;10.484;2023-01-16T02:14:55;0.60;;;0.60;;
4186;SDS011;2107;52.306;10.484;2023-01-16T02:17:24;0.70;;;0.70;;
4186;SDS011;2107;52.306;10.484;2023-01-16T02:20:16;0.60;;;0.60;;
4186;SDS011;2107;52.306;10.484;2023-01-16T02:22:59;0.50;;;0.50;;
4186;SDS011;2107;52.306;10.484;2023-01-16T02:32:26;0.57;;;0.57;;
4186;SDS011;2107;52.306;10.484;2023-01-16T02:35:16;0.53;;;0.53;;
4186;SDS011;2107;52.306;10.484;2023-01-16T02:37:54;0.50;;;0.50;;
4186;SDS011;2107;52.306;10.484;2023-01-16T02:40:32;0.50;;;0.50;;
4186;SDS011;2107;52.306;10.484;2023-01-16T02:43:09;0.60;;;0.60;;
4186;SDS011;2107;52.306;10.484;2023-01-16T02:45:42;0.50;;;0.50;;
4186;SDS011;2107;52.306;10.484;2023-01-16T02:48:19;0.50;;;0.50;;
4186;SDS011;2107;52.306;10.484;2023-01-16T02:50:52;0.60;;;0.60;;
4186;SDS011;2107;52.306;10.484;2023-01-16T02:53:25;0.60;;;0.60;;
4186;SDS011;2107;52.306;10.484;2023-01-16T02:55:59;0.60;;;0.60;;
4186;SDS011;2107;52.306;10.484;2023-01-16T02:58:33;0.80;;;0.80;;
4186;SDS011;2107;52.306;10.484;2023-01-16T03:01:04;0.70;;;0.70;;
4186;SDS011;2107;52.306;10.484;2023-01-16T03:03:38;0.70;;;0.70;;
4186;SDS011;2107;52.306;10.484;2023-01-16T03:06:11;0.70;;;0.70;;
4186;SDS011;2107;52.306;10.484;2023-01-16T03:08:55;0.60;;;0.60;;
4186;SDS011;2107;52.306;10.484;2023-01-16T03:11:40;0.60;;;0.60;;
4186;SDS011;2107;52.306;10.484;2023-01-16T03:14:16;0.60;;;0.60;;
4186;SDS011;2107;52.306;10.484;2023-01-16T03:16:59;0.80;;;0.80;;
4186;SDS011;2107;52.306;10.484;2023-01-16T03:19:43;0.70;;;0.70;;
4186;SDS011;2107;52.306;10.484;2023-01-16T03:22:21;0.70;;;0.70;;
4186;SDS011;2107;52.306;10.484;2023-01-16T03:25:02;0.60;;;0.60;;
4186;SDS011;2107;52.306;10.484;2023-01-16T03:27:41;0.70;;;0.70;;
4186;SDS011;2107;52.306;10.484;2023-01-16T03:30:18;0.80;;;0.80;;
4186;SDS011;2107;52.306;10.484;2023-01-16T03:32:51;0.70;;;0.70;;
4186;SDS011;2107;52.306;10.484;2023-01-16T03:35:25;0.60;;;0.60;;
4186;SDS011;2107;52.306;10.484;2023-01-16T03:37:57;0.70;;;0.70;;
4186;SDS011;2107;52.306;10.484;2023-01-16T03:40:28;0.60;;;0.60;;
4186;SDS011;2107;52.306;10.484;2023-01-16T03:43:00;0.50;;;0.50;;
4186;SDS011;2107;52.306;10.484;2023-01-16T03:45:31;0.60;;;0.60;;
4186;SDS011;2107;52.306;10.484;2023-01-16T03:48:05;0.60;;;0.60;;
4186;SDS011;2107;52.306;10.484;2023-01-16T03:50:39;0.60;;;0.60;;
4186;SDS011;2107;52.306;10.484;2023-01-16T03:53:09;0.70;;;0.70;;
4186;SDS011;2107;52.306;10.484;2023-01-16T03:55:41;0.60;;;0.60;;
4186;SDS011;2107;52.306;10.484;2023-01-16T03:58:13;0.70;;;0.70;;
4186;SDS011;2107;52.306;10.484;2023-01-16T04:00:47;0.60;;;0.60;;
4186;SDS011;2107;52.306;10.484;2023-01-16T04:03:22;0.80;;;0.80;;
4186;SDS011;2107;52.306;10.484;2023-01-16T04:05:55;0.60;;;0.60;;
4186;SDS011;2107;52.306;10.484;2023-01-16T04:08:28;0.80;;;0.80;;
4186;SDS011;2107;52.306;10.484;2023-01-16T04:11:00;0.60;;;0.60;;
4186;SDS011;2107;52.306;10.484;2023-01-16T04:13:28;0.70;;;0.70;;
4186;SDS011;2107;52.306;10.484;2023-01-16T04:16:00;0.70;;;0.70;;
4186;SDS011;2107;52.306;10.484;2023-01-16T04:18:30;0.90;;;0.90;;
4186;SDS011;2107;52.306;10.484;2023-01-16T04:21:02;0.60;;;0.60;;
4186;SDS011;2107;52.306;10.484;2023-01-16T04:23:30;0.70;;;0.70;;
4186;SDS011;2107;52.306;10.484;2023-01-16T04:25:57;0.80;;;0.80;;
4186;SDS011;2107;52.306;10.484;2023-01-16T04:28:24;0.70;;;0.70;;
4186;SDS011;2107;52.306;10.484;2023-01-16T04:30:50;0.70;;;0.70;;
4186;SDS011;2107;52.306;10.484;2023-01-16T04:33:17;0.70;;;0.70;;
4186;SDS011;2107;52.306;10.484;2023-01-16T04:35:44;0.80;;;0.80;;
4186;SDS011;2107;52.306;10.484;2023-01-16T04:38:12;0.70;;;0.70;;
4186;SDS011;2107;52.306;10.484;2023-01-16T04:40:39;0.90;;;0.90;;
4186;SDS011;2107;52.306;10.484;2023-01-16T04:43:06;0.90;;;0.90;;
4186;SDS011;2107;52.306;10.484;2023-01-16T04:45:33;0.90;;;0.90;;
4186;SDS011;2107;52.306;10.484;2023-01-16T04:47:59;0.80;;;0.80;;
4186;SDS011;2107;52.306;10.484;2023-01-16T04:50:26;0.90;;;0.90;;
4186;SDS011;2107;52.306;10.484;2023-01-16T04:52:53;0.70;;;0.70;;
4186;SDS011;2107;52.306;10.484;2023-01-16T04:55:21;0.80;;;0.80;;
4186;SDS011;2107;52.306;10.484;2023-01-16T04:57:49;0.80;;;0.80;;
4186;SDS011;2107;52.306;10.484;2023-01-16T05:00:16;0.90;;;0.90;;
4186;SDS011;2107;52.306;10.484;2023-01-16T05:02:43;1.00;;;1.00;;
4186;SDS011;2107;52.306;10.484;2023-01-16T05:05:10;0.90;;;0.90;;
4186;SDS011;2107;52.306;10.484;2023-01-16T05:07:37;0.90;;;0.90;;
4186;SDS011;2107;52.306;10.484;2023-01-16T05:10:04;0.80;;;0.80;;
4186;SDS011;2107;52.306;10.484;2023-01-16T05:12:33;0.70;;;0.70;;
4186;SDS011;2107;52.306;10.484;2023-01-16T05:15:00;1.10;;;1.10;;
4186;SDS011;2107;52.306;10.484;2023-01-16T05:17:27;1.10;;;1.10;;
4186;SDS011;2107;52.306;10.484;2023-01-16T05:19:54;0.90;;;0.90;;
4186;SDS011;2107;52.306;10.484;2023-01-16T05:22:20;1.00;;;1.00;;
4186;SDS011;2107;52.306;10.484;2023-01-16T05:24:47;1.00;;;1.00;;
4186;SDS011;2107;52.306;10.484;2023-01-16T05:27:14;0.90;;;0.90;;
4186;SDS011;2107;52.306;10.484;2023-01-16T05:29:42;1.00;;;1.00;;
4186;SDS011;2107;52.306;10.484;2023-01-16T05:32:09;0.90;;;0.90;;
4186;SDS011;2107;52.306;10.484;2023-01-16T05:34:36;0.90;;;0.90;;
4186;SDS011;2107;52.306;10.484;2023-01-16T05:37:03;1.00;;;1.00;;
4186;SDS011;2107;52.306;10.484;2023-01-16T05:39:29;1.00;;;1.00;;
4186;SDS011;2107;52.306;10.484;2023-01-16T05:41:56;0.90;;;0.90;;
4186;SDS011;2107;52.306;10.484;2023-01-16T05:44:23;1.00;;;1.00;;
4186;SDS011;2107;52.306;10.484;2023-01-16T05:46:51;0.90;;;0.90;;
4186;SDS011;2107;52.306;10.484;2023-01-16T05:49:18;1.00;;;1.00;;
4186;SDS011;2107;52.306;10.484;2023-01-16T05:51:45;1.10;;;1.10;;
4186;SDS011;2107;52.306;10.484;2023-01-16T05:54:12;1.30;;;1.30;;
4186;SDS011;2107;52.306;10.484;2023-01-16T05:56:39;1.20;;;1.20;;
4186;SDS011;2107;52.306;10.484;2023-01-16T05:59:06;1.00;;;1.00;;
4186;SDS011;2107;52.306;10.484;2023-01-16T06:01:34;1.10;;;1.10;;
4186;SDS011;2107;52.306;10.484;2023-01-16T06:04:03;1.20;;;1.20;;
4186;SDS011;2107;52.306;10.484;2023-01-16T06:06:30;1.00;;;1.00;;
4186;SDS011;2107;52.306;10.484;2023-01-16T06:08:57;1.27;;;1.27;;
4186;SDS011;2107;52.306;10.484;2023-01-16T06:11:24;0.97;;;0.97;;
4186;SDS011;2107;52.306;10.484;2023-01-16T06:13:50;1.07;;;1.07;;
4186;SDS011;2107;52.306;10.484;2023-01-16T06:16:17;0.90;;;0.90;;
4186;SDS011;2107;52.306;10.484;2023-01-16T06:18:44;1.20;;;1.20;;
4186;SDS011;2107;52.306;10.484;2023-01-16T06:21:12;1.60;;;1.60;;
4186;SDS011;2107;52.306;10.484;2023-01-16T06:23:39;2.00;;;2.00;;
4186;SDS011;2107;52.306;10.484;2023-01-16T06:26:06;1.70;;;1.70;;
4186;SDS011;2107;52.306;10.484;2023-01-16T06:28:34;1.80;;;1.80;;
4186;SDS011;2107;52.306;10.484;2023-01-16T06:31:02;1.80;;;1.80;;
4186;SDS011;2107;52.306;10.484;2023-01-16T06:33:29;1.80;;;1.80;;
4186;SDS011;2107;52.306;10.484;2023-01-16T06:35:56;1.70;;;1.70;;
4186;SDS011;2107;52.306;10.484;2023-01-16T06:38:24;1.90;;;1.90;;
4186;SDS011;2107;52.306;10.484;2023-01-16T06:40:51;1.70;;;1.70;;
4186;SDS011;2107;52.306;10.484;2023-01-16T06:43:21;1.60;;;1.60;;
4186;SDS011;2107;52.306;10.484;2023-01-16T06:45:48;1.30;;;1.30;;
4186;SDS011;2107;52.306;10.484;2023-01-16T06:48:15;1.33;;;1.33;;
4186;SDS011;2107;52.306;10.484;2023-01-16T06:50:42;1.50;;;1.50;;
4186;SDS011;2107;52.306;10.484;2023-01-16T06:53:09;1.30;;;1.30;;
4186;SDS011;2107;52.306;10.484;2023-01-16T06:55:37;1.17;;;1.17;;
4186;SDS011;2107;52.306;10.484;2023-01-16T06:58:04;1.40;;;1.40;;
4186;SDS011;2107;52.306;10.484;2023-01-16T07:00:31;1.27;;;1.27;;
4186;SDS011;2107;52.306;10.484;2023-01-16T07:02:58;1.17;;;1.17;;
4186;SDS011;2107;52.306;10.484;2023-01-16T07:05:26;1.30;;;1.30;;
4186;SDS011;2107;52.306;10.484;2023-01-16T07:07:55;1.30;;;1.30;;
4186;SDS011;2107;52.306;10.484;2023-01-16T07:10:23;1.10;;;1.10;;
4186;SDS011;2107;52.306;10.484;2023-01-16T07:12:51;1.20;;;1.20;;
4186;SDS011;2107;52.306;10.484;2023-01-16T07:15:18;1.20;;;1.20;;
4186;SDS011;2107;52.306;10.484;2023-01-16T07:18:03;1.30;;;1.30;;
4186;SDS011;2107;52.306;10.484;2023-01-16T07:20:50;1.00;;;1.00;;
4186;SDS011;2107;52.306;10.484;2023-01-16T07:23:35;1.10;;;1.10;;
4186;SDS011;2107;52.306;10.484;2023-01-16T07:26:04;1.10;;;1.10;;
4186;SDS011;2107;52.306;10.484;2023-01-16T07:28:34;1.10;;;1.10;;
4186;SDS011;2107;52.306;10.484;2023-01-16T07:31:02;1.10;;;1.10;;
4186;SDS011;2107;52.306;10.484;2023-01-16T07:33:30;1.00;;;1.00;;
4186;SDS011;2107;52.306;10.484;2023-01-16T07:35:57;1.07;;;1.07;;
4186;SDS011;2107;52.306;10.484;2023-01-16T07:38:24;1.00;;;1.00;;
4186;SDS011;2107;52.306;10.484;2023-01-16T07:40:51;0.80;;;0.80;;
4186;SDS011;2107;52.306;10.484;2023-01-16T07:43:17;0.83;;;0.83;;
4186;SDS011;2107;52.306;10.484;2023-01-16T07:45:46;0.80;;;0.80;;
4186;SDS011;2107;52.306;10.484;2023-01-16T07:48:17;0.90;;;0.90;;
4186;SDS011;2107;52.306;10.484;2023-01-16T07:50:48;0.90;;;0.90;;
4186;SDS011;2107;52.306;10.484;2023-01-16T07:53:17;0.90;;;0.90;;
4186;SDS011;2107;52.306;10.484;2023-01-16T07:55:46;1.00;;;1.00;;
4186;SDS011;2107;52.306;10.484;2023-01-16T07:58:13;0.70;;;0.70;;
4186;SDS011;2107;52.306;10.484;2023-01-16T08:00:40;0.73;;;0.73;;
4186;SDS011;2107;52.306;10.484;2023-01-16T08:03:09;0.70;;;0.70;;
4186;SDS011;2107;52.306;10.484;2023-01-16T08:05:36;0.70;;;0.70;;
4186;SDS011;2107;52.306;10.484;2023-01-16T08:08:03;0.70;;;0.70;;
4186;SDS011;2107;52.306;10.484;2023-01-16T08:10:30;1.00;;;1.00;;
4186;SDS011;2107;52.306;10.484;2023-01-16T08:12:57;0.80;;;0.80;;
4186;SDS011;2107;52.306;10.484;2023-01-16T08:15:24;0.80;;;0.80;;
4186;SDS011;2107;52.306;10.484;2023-01-16T08:17:51;0.73;;;0.73;;
4186;SDS011;2107;52.306;10.484;2023-01-16T08:20:19;1.00;;;1.00;;
4186;SDS011;2107;52.306;10.484;2023-01-16T08:22:47;0.97;;;0.97;;
4186;SDS011;2107;52.306;10.484;2023-01-16T08:25:16;0.90;;;0.90;;
4186;SDS011;2107;52.306;10.484;2023-01-16T08:27:45;1.00;;;1.00;;
4186;SDS011;2107;52.306;10.484;2023-01-16T08:30:12;1.00;;;1.00;;
4186;SDS011;2107;52.306;10.484;2023-01-16T08:32:40;0.90;;;0.90;;
4186;SDS011;2107;52.306;10.484;2023-01-16T08:35:08;0.97;;;0.97;;
4186;SDS011;2107;52.306;10.484;2023-01-16T08:37:36;0.90;;;0.90;;
4186;SDS011;2107;52.306;10.484;2023-01-16T08:40:04;0.90;;;0.90;;
4186;SDS011;2107;52.306;10.484;2023-01-16T08:42:31;1.00;;;1.00;;
4186;SDS011;2107;52.306;10.484;2023-01-16T08:45:16;1.00;;;1.00;;
4186;SDS011;2107;52.306;10.484;2023-01-16T08:48:00;1.10;;;1.10;;
4186;SDS011;2107;52.306;10.484;2023-01-16T08:50:45;1.20;;;1.20;;
4186;SDS011;2107;52.306;10.484;2023-01-16T08:53:32;1.00;;;1.00;;
4186;SDS011;2107;52.306;10.484;2023-01-16T08:55:59;1.00;;;1.00;;
4186;SDS011;2107;52.306;10.484;2023-01-16T08:58:26;1.23;;;1.23;;
4186;SDS011;2107;52.306;10.484;2023-01-16T09:00:53;1.00;;;1.00;;
4186;SDS011;2107;52.306;10.484;2023-01-16T09:03:20;1.10;;;1.10;;
4186;SDS011;2107;52.306;10.484;2023-01-16T09:05:47;1.00;;;1.00;;
4186;SDS011;2107;52.306;10.484;2023-01-16T09:08:13;1.10;;;1.10;;
4186;SDS011;2107;52.306;10.484;2023-01-16T09:10:42;1.00;;;1.00;;
4186;SDS011;2107;52.306;10.484;2023-01-16T09:13:29;1.10;;;1.10;;
4186;SDS011;2107;52.306;10.484;2023-01-16T09:16:13;1.00;;;1.00;;
4186;SDS011;2107;52.306;10.484;2023-01-16T09:18:40;1.50;;;1.50;;
4186;SDS011;2107;52.306;10.484;2023-01-16T09:21:07;1.00;;;1.00;;
4186;SDS011;2107;52.306;10.484;2023-01-16T09:23:34;1.10;;;1.10;;
4186;SDS011;2107;52.306;10.484;2023-01-16T09:26:02;1.00;;;1.00;;
4186;SDS011;2107;52.306;10.484;2023-01-16T09:28:29;1.20;;;1.20;;
4186;SDS011;2107;52.306;10.484;2023-01-16T09:30:56;1.10;;;1.10;;
4186;SDS011;2107;52.306;10.484;2023-01-16T09:33:22;1.20;;;1.20;;
4186;SDS011;2107;52.306;10.484;2023-01-16T09:35:49;1.10;;;1.10;;
4186;SDS011;2107;52.306;10.484;2023-01-16T09:38:16;0.80;;;0.80;;
4186;SDS011;2107;52.306;10.484;2023-01-16T09:40:43;0.90;;;0.90;;
4186;SDS011;2107;52.306;10.484;2023-01-16T09:43:18;1.00;;;1.00;;
4186;SDS011;2107;52.306;10.484;2023-01-16T09:46:05;0.70;;;0.70;;
4186;SDS011;2107;52.306;10.484;2023-01-16T09:48:38;0.77;;;0.77;;
4186;SDS011;2107;52.306;10.484;2023-01-16T09:51:10;0.90;;;0.90;;
4186;SDS011;2107;52.306;10.484;2023-01-16T09:53:41;0.90;;;0.90;;
4186;SDS011;2107;52.306;10.484;2023-01-16T09:56:30;1.00;;;1.00;;
4186;SDS011;2107;52.306;10.484;2023-01-16T09:59:28;1.00;;;1.00;;
4186;SDS011;2107;52.306;10.484;2023-01-16T10:02:00;0.90;;;0.90;;
4186;SDS011;2107;52.306;10.484;2023-01-16T10:04:33;1.00;;;1.00;;
4186;SDS011;2107;52.306;10.484;2023-01-16T10:07:17;1.00;;;1.00;;
4186;SDS011;2107;52.306;10.484;2023-01-16T10:10:15;1.10;;;1.10;;
4186;SDS011;2107;52.306;10.484;2023-01-16T10:12:54;1.00;;;1.00;;
4186;SDS011;2107;52.306;10.484;2023-01-16T10:15:31;0.70;;;0.70;;
4186;SDS011;2107;52.306;10.484;2023-01-16T10:18:10;1.00;;;1.00;;
4186;SDS011;2107;52.306;10.484;2023-01-16T10:20:47;0.70;;;0.70;;
4186;SDS011;2107;52.306;10.484;2023-01-16T10:23:32;0.80;;;0.80;;
4186;SDS011;2107;52.306;10.484;2023-01-16T10:26:08;0.30;;;0.30;;
4186;SDS011;2107;52.306;10.484;2023-01-16T10:31:29;0.47;;;0.47;;
4186;SDS011;2107;52.306;10.484;2023-01-16T10:34:00;0.60;;;0.60;;
4186;SDS011;2107;52.306;10.484;2023-01-16T10:36:31;0.90;;;0.90;;
4186;SDS011;2107;52.306;10.484;2023-01-16T10:39:03;0.90;;;0.90;;
4186;SDS011;2107;52.306;10.484;2023-01-16T10:41:30;1.00;;;1.00;;
4186;SDS011;2107;52.306;10.484;2023-01-16T10:44:23;1.00;;;1.00;;
4186;SDS011;2107;52.306;10.484;2023-01-16T10:47:15;0.90;;;0.90;;
4186;SDS011;2107;52.306;10.484;2023-01-16T10:50:02;1.20;;;1.20;;
4186;SDS011;2107;52.306;10.484;2023-01-16T10:52:30;1.30;;;1.30;;
4186;SDS011;2107;52.306;10.484;2023-01-16T10:54:58;1.10;;;1.10;;
4186;SDS011;2107;52.306;10.484;2023-01-16T10:57:27;0.90;;;0.90;;
4186;SDS011;2107;52.306;10.484;2023-01-16T10:59:54;0.90;;;0.90;;
4186;SDS011;2107;52.306;10.484;2023-01-16T11:02:28;0.93;;;0.93;;
4186;SDS011;2107;52.306;10.484;2023-01-16T11:04:57;0.70;;;0.70;;
4186;SDS011;2107;52.306;10.484;2023-01-16T11:07:26;0.90;;;0.90;;
4186;SDS011;2107;52.306;10.484;2023-01-16T11:09:55;0.70;;;0.70;;
4186;SDS011;2107;52.306;10.484;2023-01-16T11:12:25;1.00;;;1.00;;
4186;SDS011;2107;52.306;10.484;2023-01-16T11:15:13;1.00;;;1.00;;
4186;SDS011;2107;52.306;10.484;2023-01-16T11:18:02;1.10;;;1.10;;
4186;SDS011;2107;52.306;10.484;2023-01-16T11:20:55;1.10;;;1.10;;
4186;SDS011;2107;52.306;10.484;2023-01-16T11:23:26;1.10;;;1.10;;
4186;SDS011;2107;52.306;10.484;2023-01-16T11:25:59;1.00;;;1.00;;
4186;SDS011;2107;52.306;10.484;2023-01-16T11:28:27;0.87;;;0.87;;
4186;SDS011;2107;52.306;10.484;2023-01-16T11:30:56;0.80;;;0.80;;
4186;SDS011;2107;52.306;10.484;2023-01-16T11:33:27;0.80;;;0.80;;
4186;SDS011;2107;52.306;10.484;2023-01-16T11:36:00;0.80;;;0.80;;
4186;SDS011;2107;52.306;10.484;2023-01-16T11:38:29;0.70;;;0.70;;
4186;SDS011;2107;52.306;10.484;2023-01-16T11:40:59;0.80;;;0.80;;
4186;SDS011;2107;52.306;10.484;2023-01-16T11:43:29;0.70;;;0.70;;
4186;SDS011;2107;52.306;10.484;2023-01-16T11:46:20;0.80;;;0.80;;
4186;SDS011;2107;52.306;10.484;2023-01-16T11:49:00;1.00;;;1.00;;
4186;SDS011;2107;52.306;10.484;2023-01-16T11:51:28;1.00;;;1.00;;
4186;SDS011;2107;52.306;10.484;2023-01-16T11:53:57;1.00;;;1.00;;
4186;SDS011;2107;52.306;10.484;2023-01-16T11:56:38;1.10;;;1.10;;
4186;SDS011;2107;52.306;10.484;2023-01-16T11:59:15;1.10;;;1.10;;
4186;SDS011;2107;52.306;10.484;2023-01-16T12:01:57;1.30;;;1.30;;
4186;SDS011;2107;52.306;10.484;2023-01-16T12:04:50;1.30;;;1.30;;
4186;SDS011;2107;52.306;10.484;2023-01-16T12:07:47;1.10;;;1.10;;
4186;SDS011;2107;52.306;10.484;2023-01-16T12:10:29;0.90;;;0.90;;
4186;SDS011;2107;52.306;10.484;2023-01-16T12:13:06;0.90;;;0.90;;
4186;SDS011;2107;52.306;10.484;2023-01-16T12:15:56;0.80;;;0.80;;
4186;SDS011;2107;52.306;10.484;2023-01-16T12:18:34;1.00;;;1.00;;
4186;SDS011;2107;52.306;10.484;2023-01-16T12:21:14;0.80;;;0.80;;
4186;SDS011;2107;52.306;10.484;2023-01-16T12:23:54;1.00;;;1.00;;
4186;SDS011;2107;52.306;10.484;2023-01-16T12:26:36;0.97;;;0.97;;
4186;SDS011;2107;52.306;10.484;2023-01-16T12:29:14;0.80;;;0.80;;
4186;SDS011;2107;52.306;10.484;2023-01-16T12:31:59;1.10;;;1.10;;
4186;SDS011;2107;52.306;10.484;2023-01-16T12:34:44;0.90;;;0.90;;
4186;SDS011;2107;52.306;10.484;2023-01-16T12:37:49;0.90;;;0.90;;
4186;SDS011;2107;52.306;10.484;2023-01-16T12:40:33;0.70;;;0.70;;
4186;SDS011;2107;52.306;10.484;2023-01-16T12:43:18;0.80;;;0.80;;
4186;SDS011;2107;52.306;10.484;2023-01-16T12:45:52;1.00;;;1.00;;
4186;SDS011;2107;52.306;10.484;2023-01-16T12:48:28;0.90;;;0.90;;
4186;SDS011;2107;52.306;10.484;2023-01-16T12:51:22;0.90;;;0.90;;
4186;SDS011;2107;52.306;10.484;2023-01-16T12:54:02;1.00;;;1.00;;
4186;SDS011;2107;52.306;10.484;2023-01-16T12:56:55;1.00;;;1.00;;
4186;SDS011;2107;52.306;10.484;2023-01-16T12:59:33;0.90;;;0.90;;
4186;SDS011;2107;52.306;10.484;2023-01-16T13:02:08;0.90;;;0.90;;
4186;SDS011;2107;52.306;10.484;2023-01-16T13:04:42;0.70;;;0.70;;
4186;SDS011;2107;52.306;10.484;2023-01-16T13:07:15;1.00;;;1.00;;
4186;SDS011;2107;52.306;10.484;2023-01-16T13:09:44;0.90;;;0.90;;
4186;SDS011;2107;52.306;10.484;2023-01-16T13:12:16;0.70;;;0.70;;
4186;SDS011;2107;52.306;10.484;2023-01-16T13:15:04;0.90;;;0.90;;
4186;SDS011;2107;52.306;10.484;2023-01-16T13:17:37;1.00;;;1.00;;
4186;SDS011;2107;52.306;10.484;2023-01-16T13:20:09;0.90;;;0.90;;
4186;SDS011;2107;52.306;10.484;2023-01-16T13:22:40;1.00;;;1.00;;
4186;SDS011;2107;52.306;10.484;2023-01-16T13:25:14;1.10;;;1.10;;
4186;SDS011;2107;52.306;10.484;2023-01-16T13:27:47;1.00;;;1.00;;
4186;SDS011;2107;52.306;10.484;2023-01-16T13:30:19;1.10;;;1.10;;
4186;SDS011;2107;52.306;10.484;2023-01-16T13:32:48;1.20;;;1.20;;
4186;SDS011;2107;52.306;10.484;2023-01-16T13:35:18;1.00;;;1.00;;
4186;SDS011;2107;52.306;10.484;2023-01-16T13:41:11;1.00;;;1.00;;
4186;SDS011;2107;52.306;10.484;2023-01-16T13:43:43;1.00;;;1.00;;
4186;SDS011;2107;52.306;10.484;2023-01-16T13:46:31;1.10;;;1.10;;
4186;SDS011;2107;52.306;10.484;2023-01-16T13:49:00;1.13;;;1.13;;
4186;SDS011;2107;52.306;10.484;2023-01-16T13:51:30;1.00;;;1.00;;
4186;SDS011;2107;52.306;10.484;2023-01-16T13:54:07;0.80;;;0.80;;
4186;SDS011;2107;52.306;10.484;2023-01-16T13:56:41;0.80;;;0.80;;
4186;SDS011;2107;52.306;10.484;2023-01-16T14:01:55;0.80;;;0.80;;
4186;SDS011;2107;52.306;10.484;2023-01-16T14:04:28;0.90;;;0.90;;
4186;SDS011;2107;52.306;10.484;2023-01-16T14:06:57;1.10;;;1.10;;
4186;SDS011;2107;52.306;10.484;2023-01-16T14:09:59;0.90;;;0.90;;
4186;SDS011;2107;52.306;10.484;2023-01-16T14:12:58;1.00;;;1.00;;
4186;SDS011;2107;52.306;10.484;2023-01-16T14:15:43;0.90;;;0.90;;
4186;SDS011;2107;52.306;10.484;2023-01-16T14:18:57;0.90;;;0.90;;
4186;SDS011;2107;52.306;10.484;2023-01-16T14:21:26;0.80;;;0.80;;
4186;SDS011;2107;52.306;10.484;2023-01-16T14:23:56;0.80;;;0.80;;
4186;SDS011;2107;52.306;10.484;2023-01-16T14:26:37;0.97;;;0.97;;
4186;SDS011;2107;52.306;10.484;2023-01-16T14:29:12;0.90;;;0.90;;
4186;SDS011;2107;52.306;10.484;2023-01-16T14:31:44;1.00;;;1.00;;
4186;SDS011;2107;52.306;10.484;2023-01-16T14:34:19;0.90;;;0.90;;
4186;SDS011;2107;52.306;10.484;2023-01-16T14:36:48;0.80;;;0.80;;
4186;SDS011;2107;52.306;10.484;2023-01-16T14:39:28;0.80;;;0.80;;
4186;SDS011;2107;52.306;10.484;2023-01-16T14:41:59;0.90;;;0.90;;
4186;SDS011;2107;52.306;10.484;2023-01-16T14:48:14;0.90;;;0.90;;
4186;SDS011;2107;52.306;10.484;2023-01-16T14:51:20;0.93;;;0.93;;
4186;SDS011;2107;52.306;10.484;2023-01-16T14:54:15;0.70;;;0.70;;
4186;SDS011;2107;52.306;10.484;2023-01-16T14:57:06;0.70;;;0.70;;
4186;SDS011;2107;52.306;10.484;2023-01-16T14:59:39;0.70;;;0.70;;
4186;SDS011;2107;52.306;10.484;2023-01-16T15:02:11;0.90;;;0.90;;
4186;SDS011;2107;52.306;10.484;2023-01-16T15:04:47;1.10;;;1.10;;
4186;SDS011;2107;52.306;10.484;2023-01-16T15:07:19;0.90;;;0.90;;
4186;SDS011;2107;52.306;10.484;2023-01-16T15:09:52;0.90;;;0.90;;
4186;SDS011;2107;52.306;10.484;2023-01-16T15:12:23;1.00;;;1.00;;
4186;SDS011;2107;52.306;10.484;2023-01-16T15:15:02;1.00;;;1.00;;
4186;SDS011;2107;52.306;10.484;2023-01-16T15:17:33;1.10;;;1.10;;
4186;SDS011;2107;52.306;10.484;2023-01-16T15:20:20;0.80;;;0.80;;
4186;SDS011;2107;52.306;10.484;2023-01-16T15:23:15;1.00;;;1.00;;
4186;SDS011;2107;52.306;10.484;2023-01-16T15:25:48;0.90;;;0.90;;
4186;SDS011;2107;52.306;10.484;2023-01-16T15:28:33;1.00;;;1.00;;
4186;SDS011;2107;52.306;10.484;2023-01-16T15:31:09;0.97;;;0.97;;
4186;SDS011;2107;52.306;10.484;2023-01-16T15:33:40;0.90;;;0.90;;
4186;SDS011;2107;52.306;10.484;2023-01-16T15:36:20;1.20;;;1.20;;
4186;SDS011;2107;52.306;10.484;2023-01-16T15:38:50;1.00;;;1.00;;
4186;SDS011;2107;52.306;10.484;2023-01-16T15:41:20;1.10;;;1.10;;
4186;SDS011;2107;52.306;10.484;2023-01-16T15:44:12;0.87;;;0.87;;
4186;SDS011;2107;52.306;10.484;2023-01-16T15:47:12;1.00;;;1.00;;
4186;SDS011;2107;52.306;10.484;2023-01-16T15:50:02;1.10;;;1.10;;
4186;SDS011;2107;52.306;10.484;2023-01-16T15:52:38;1.10;;;1.10;;
4186;SDS011;2107;52.306;10.484;2023-01-16T15:55:09;0.90;;;0.90;;